createdAt,value
2022-08-28T00:08:48.195Z,2.30
2022-08-28T00:11:38.539Z,2.00
2022-08-28T00:14:32.824Z,1.70
2022-08-28T00:17:57.683Z,1.20
2022-08-28T00:20:47.739Z,1.30
2022-08-28T00:23:54.923Z,1.60
2022-08-28T00:29:54.956Z,2.30
2022-08-28T00:36:24.456Z,1.60
2022-08-28T00:39:01.557Z,1.60
2022-08-28T00:41:38.974Z,1.70
2022-08-28T00:51:27.231Z,1.60
2022-08-28T01:01:33.525Z,2.40
2022-08-28T01:04:41.807Z,2.20
2022-08-28T01:07:16.178Z,2.50
2022-08-28T01:10:10.913Z,2.10
2022-08-28T01:12:44.565Z,1.90
2022-08-28T01:26:02.678Z,2.00
2022-08-28T01:36:33.755Z,2.40
2022-08-28T01:39:45.284Z,2.70
2022-08-28T01:45:12.490Z,2.40
2022-08-28T01:48:20.559Z,2.60
2022-08-28T01:50:53.765Z,2.20
2022-08-28T01:53:46.484Z,2.30
2022-08-28T01:56:39.319Z,1.70
2022-08-28T01:59:14.315Z,2.00
2022-08-28T02:02:07.198Z,2.10
2022-08-28T02:08:22.838Z,1.70
2022-08-28T02:11:13.567Z,2.20
2022-08-28T02:17:30.085Z,2.70
2022-08-28T02:24:05.753Z,2.10
2022-08-28T02:27:14.460Z,2.10
2022-08-28T02:30:04.959Z,2.30
2022-08-28T02:32:58.056Z,2.20
2022-08-28T02:35:49.507Z,2.40
2022-08-28T02:39:13.405Z,2.50
2022-08-28T02:49:12.708Z,2.80
2022-08-28T02:55:15.481Z,2.90
2022-08-28T02:58:06.903Z,3.50
2022-08-28T03:00:40.196Z,3.90
2022-08-28T03:06:39.384Z,4.50
2022-08-28T03:15:15.379Z,2.80
2022-08-28T03:21:29.087Z,3.10
2022-08-28T03:24:18.905Z,2.30
2022-08-28T03:30:33.378Z,2.90
2022-08-28T03:33:06.282Z,2.30
2022-08-28T03:35:56.212Z,2.20
2022-08-28T03:38:29.222Z,1.90
2022-08-28T03:41:20.030Z,2.00
2022-08-28T03:43:53.127Z,2.40
2022-08-28T03:46:26.603Z,2.50
2022-08-28T03:52:06.814Z,2.10
2022-08-28T03:54:40.526Z,2.20
2022-08-28T03:57:31.254Z,2.20
2022-08-28T04:07:11.800Z,2.90
2022-08-28T04:10:02.929Z,2.30
2022-08-28T04:13:11.603Z,1.90
2022-08-28T04:16:19.627Z,1.90
2022-08-28T04:18:52.937Z,2.20
2022-08-28T04:21:26.266Z,2.10
2022-08-28T04:23:59.461Z,2.00
2022-08-28T04:30:17.041Z,2.40
2022-08-28T04:32:49.529Z,1.90
2022-08-28T04:35:58.951Z,2.60
2022-08-28T04:38:50.922Z,6.50
2022-08-28T04:42:00.215Z,3.00
2022-08-28T04:45:06.926Z,3.10
2022-08-28T04:48:32.604Z,2.00
2022-08-28T04:54:40.330Z,2.50
2022-08-28T04:57:47.680Z,2.00
2022-08-28T05:03:30.744Z,2.30
2022-08-28T05:06:21.848Z,1.90
2022-08-28T05:09:47.784Z,1.80
2022-08-28T05:12:57.084Z,2.10
2022-08-28T05:15:51.197Z,3.50
2022-08-28T05:21:53.143Z,2.30
2022-08-28T05:24:43.705Z,1.90
2022-08-28T05:37:50.194Z,2.20
2022-08-28T05:40:44.473Z,2.60
2022-08-28T05:43:53.715Z,2.40
2022-08-28T05:46:28.382Z,1.70
2022-08-28T05:52:43.703Z,1.60
2022-08-28T05:56:26.863Z,1.80
2022-08-28T05:59:01.100Z,1.80
2022-08-28T06:01:35.654Z,2.10
2022-08-28T06:04:27.436Z,1.50
2022-08-28T06:07:35.343Z,2.00
2022-08-28T06:10:10.597Z,1.80
2022-08-28T06:13:02.596Z,1.40
2022-08-28T06:19:18.728Z,1.70
2022-08-28T06:21:55.149Z,1.90
2022-08-28T06:25:21.403Z,1.80
2022-08-28T06:28:11.176Z,2.10
2022-08-28T06:33:52.422Z,2.00
2022-08-28T06:36:59.456Z,2.10
2022-08-28T06:39:49.233Z,2.30
2022-08-28T06:42:41.568Z,2.10
2022-08-28T06:45:48.462Z,2.10
2022-08-28T06:48:39.780Z,2.00
2022-08-28T06:51:14.232Z,1.70
2022-08-28T06:54:23.649Z,2.40
2022-08-28T06:56:56.678Z,2.50
2022-08-28T06:59:49.378Z,2.40
2022-08-28T07:02:23.987Z,2.20
2022-08-28T07:08:44.490Z,2.50
2022-08-28T07:14:43.277Z,2.80
2022-08-28T07:17:15.919Z,3.10
2022-08-28T07:19:49.109Z,3.30
2022-08-28T07:22:39.667Z,3.20
2022-08-28T07:28:20.618Z,3.00
2022-08-28T07:31:03.810Z,3.10
2022-08-28T07:33:56.299Z,3.30
2022-08-28T07:37:20.812Z,3.20
2022-08-28T07:40:14.325Z,3.00
2022-08-28T07:43:40.703Z,4.00
2022-08-28T07:46:48.381Z,3.50
2022-08-28T07:49:20.778Z,3.30
2022-08-28T07:55:52.703Z,3.20
2022-08-28T07:58:50.826Z,3.40
2022-08-28T08:01:57.675Z,3.20
2022-08-28T08:04:47.564Z,2.90
2022-08-28T08:10:44.766Z,3.10
2022-08-28T08:13:38.441Z,2.70
2022-08-28T08:16:13.555Z,2.10
2022-08-28T08:19:04.820Z,2.40
2022-08-28T08:21:55.039Z,1.70
2022-08-28T08:24:45.652Z,1.70
2022-08-28T08:27:19.238Z,2.00
2022-08-28T08:29:52.177Z,2.20
2022-08-28T08:35:35.779Z,1.90
2022-08-28T08:38:26.738Z,2.30
2022-08-28T08:41:16.884Z,1.90
2022-08-28T08:47:58.881Z,1.70
2022-08-28T08:51:49.033Z,1.80
2022-08-28T08:58:39.361Z,2.10
2022-08-28T09:08:27.935Z,2.30
2022-08-28T09:11:56.369Z,1.70
2022-08-28T09:15:39.790Z,1.70
2022-08-28T09:18:36.699Z,1.60
2022-08-28T09:24:26.706Z,1.60
2022-08-28T09:27:35.902Z,1.60
2022-08-28T09:33:21.270Z,1.70
2022-08-28T09:36:35.036Z,1.90
2022-08-28T09:39:28.158Z,1.50
2022-08-28T09:42:40.362Z,1.60
2022-08-28T09:45:21.418Z,1.70
2022-08-28T09:55:19.536Z,1.60
2022-08-28T09:57:52.370Z,1.90
2022-08-28T10:00:54.409Z,2.00
2022-08-28T10:04:02.211Z,1.50
2022-08-28T10:07:12.715Z,1.70
2022-08-28T10:13:06.075Z,1.70
2022-08-28T10:16:00.402Z,1.50
2022-08-28T10:18:58.053Z,1.70
2022-08-28T10:21:52.768Z,1.50
2022-08-28T10:24:53.149Z,1.70
2022-08-28T10:31:22.707Z,1.40
2022-08-28T10:34:22.110Z,1.50
2022-08-28T10:37:04.418Z,1.80
2022-08-28T10:39:49.647Z,1.50
2022-08-28T10:42:59.700Z,1.60
2022-08-28T10:45:34.402Z,1.80
2022-08-28T10:51:35.235Z,1.60
2022-08-28T10:57:43.375Z,1.10
2022-08-28T11:04:02.766Z,1.10
2022-08-28T11:06:54.986Z,1.30
2022-08-28T11:09:48.773Z,1.30
2022-08-28T11:13:02.687Z,1.40
2022-08-28T11:15:47.271Z,1.00
2022-08-28T11:22:47.614Z,1.60
2022-08-28T11:29:05.909Z,1.20
2022-08-28T11:31:44.342Z,1.40
2022-08-28T11:41:11.779Z,1.20
2022-08-28T11:44:40.263Z,1.40
2022-08-28T11:50:59.012Z,1.40
2022-08-28T11:53:55.567Z,1.20
2022-08-28T11:56:46.029Z,1.10
2022-08-28T12:02:49.426Z,1.40
2022-08-28T12:05:45.157Z,1.30
2022-08-28T12:08:52.462Z,1.30
2022-08-28T12:11:54.564Z,1.20
2022-08-28T12:19:17.197Z,1.60
2022-08-28T12:26:28.471Z,1.80
2022-08-28T12:29:39.956Z,1.50
2022-08-28T12:32:52.562Z,1.80
2022-08-28T12:36:02.202Z,1.60
2022-08-28T12:41:26.362Z,1.50
2022-08-28T12:44:01.497Z,1.50
2022-08-28T12:47:11.616Z,1.80
2022-08-28T12:49:44.157Z,1.60
2022-08-28T12:52:24.039Z,1.70
2022-08-28T12:54:59.004Z,1.50
2022-08-28T12:57:50.812Z,2.00
2022-08-28T13:00:50.265Z,1.60
2022-08-28T13:03:47.927Z,1.40
2022-08-28T13:06:42.274Z,1.50
2022-08-28T13:09:37.169Z,1.80
2022-08-28T13:12:56.652Z,1.00
2022-08-28T13:18:50.495Z,1.20
2022-08-28T13:24:45.928Z,1.10
2022-08-28T13:27:25.533Z,1.20
2022-08-28T13:30:28.295Z,1.10
2022-08-28T13:33:26.003Z,1.00
2022-08-28T13:36:01.235Z,2.00
2022-08-28T13:45:09.754Z,1.50
2022-08-28T13:48:36.708Z,1.40
2022-08-28T13:54:18.749Z,1.70
2022-08-28T14:04:27.750Z,0.90
2022-08-28T14:07:00.410Z,1.50
2022-08-28T14:10:28.247Z,1.00
2022-08-28T14:13:18.881Z,1.10
2022-08-28T14:16:08.476Z,1.20
2022-08-28T14:19:17.281Z,1.80
2022-08-28T14:25:19.212Z,1.50
2022-08-28T14:28:26.670Z,1.60
2022-08-28T14:31:36.070Z,2.20
2022-08-28T14:35:00.918Z,2.30
2022-08-28T14:43:14.989Z,1.90
2022-08-28T14:52:40.556Z,1.60
2022-08-28T14:55:51.288Z,1.70
2022-08-28T15:02:23.483Z,1.80
2022-08-28T15:04:55.923Z,1.90
2022-08-28T15:08:21.565Z,1.50
2022-08-28T15:11:30.958Z,1.50
2022-08-28T15:14:21.017Z,0.90
2022-08-28T15:17:10.513Z,1.00
2022-08-28T15:19:43.263Z,1.10
2022-08-28T15:22:33.012Z,0.90
2022-08-28T15:25:41.922Z,0.70
2022-08-28T15:28:50.992Z,1.50
2022-08-28T15:31:24.916Z,1.00
2022-08-28T15:33:58.233Z,1.00
2022-08-28T15:37:24.143Z,1.10
2022-08-28T15:40:14.211Z,1.10
2022-08-28T15:42:47.586Z,1.30
2022-08-28T15:46:00.037Z,0.90
2022-08-28T15:51:41.509Z,1.00
2022-08-28T15:54:32.061Z,0.90
2022-08-28T15:57:57.802Z,1.20
2022-08-28T16:03:56.761Z,0.80
2022-08-28T16:09:19.847Z,0.80
2022-08-28T16:12:47.885Z,0.80
2022-08-28T16:15:58.106Z,0.70
2022-08-28T16:18:49.244Z,1.20
2022-08-28T16:21:22.042Z,0.80
2022-08-28T16:24:12.352Z,0.70
2022-08-28T16:27:02.831Z,0.60
2022-08-28T16:30:15.605Z,0.80
2022-08-28T16:33:24.142Z,0.90
2022-08-28T16:36:15.138Z,0.90
2022-08-28T16:39:10.447Z,0.90
2022-08-28T16:42:19.694Z,1.00
2022-08-28T16:44:56.370Z,1.40
2022-08-28T16:47:47.260Z,0.70
2022-08-28T16:53:46.595Z,1.20
2022-08-28T16:56:54.466Z,1.10
2022-08-28T17:00:20.236Z,1.80
2022-08-28T17:03:10.141Z,1.10
2022-08-28T17:06:01.312Z,0.60
2022-08-28T17:11:41.107Z,0.70
2022-08-28T17:14:48.360Z,0.50
2022-08-28T17:17:20.855Z,1.10
2022-08-28T17:20:33.994Z,1.10
2022-08-28T17:23:23.648Z,0.90
2022-08-28T17:26:32.883Z,0.80
2022-08-28T17:29:23.241Z,1.00
2022-08-28T17:35:25.264Z,1.10
2022-08-28T17:37:57.810Z,1.40
2022-08-28T17:40:48.503Z,1.20
2022-08-28T17:43:58.813Z,1.60
2022-08-28T17:46:49.653Z,1.10
2022-08-28T17:49:56.541Z,1.40
2022-08-28T17:52:29.812Z,1.20
2022-08-28T17:58:14.360Z,1.00
2022-08-28T18:03:56.137Z,0.80
2022-08-28T18:06:46.884Z,0.50
2022-08-28T18:09:36.363Z,0.80
2022-08-28T18:12:26.427Z,0.70
2022-08-28T18:22:09.660Z,0.90
2022-08-28T18:25:03.790Z,0.80
2022-08-28T18:27:56.163Z,1.40
2022-08-28T18:31:23.447Z,1.40
2022-08-28T18:34:00.343Z,3.10
2022-08-28T18:37:24.919Z,2.40
2022-08-28T18:43:22.738Z,1.40
2022-08-28T18:46:30.453Z,1.90
2022-08-28T18:49:21.932Z,0.50
2022-08-28T18:52:12.604Z,0.70
2022-08-28T18:54:45.882Z,0.70
2022-08-28T18:57:20.521Z,0.60
2022-08-28T19:00:28.433Z,0.90
2022-08-28T19:03:35.498Z,1.00
2022-08-28T19:06:44.425Z,0.70
2022-08-28T19:09:56.000Z,0.90
2022-08-28T19:13:03.432Z,1.50
2022-08-28T19:16:12.994Z,2.20
2022-08-28T19:21:53.664Z,4.90
2022-08-28T19:24:30.002Z,5.50
2022-08-28T19:27:58.820Z,4.70
2022-08-28T19:38:31.339Z,4.10
2022-08-28T19:41:56.439Z,3.00
2022-08-28T19:44:50.990Z,3.00
2022-08-28T19:47:42.476Z,1.40
2022-08-28T19:51:01.147Z,1.50
2022-08-28T19:54:08.906Z,1.40
2022-08-28T19:56:42.427Z,1.20
2022-08-28T19:59:32.865Z,1.60
2022-08-28T20:02:58.052Z,1.20
2022-08-28T20:08:22.980Z,1.20
2022-08-28T20:11:16.848Z,0.90
2022-08-28T20:13:50.718Z,0.90
2022-08-28T20:17:02.544Z,1.20
2022-08-28T20:19:52.846Z,1.70
2022-08-28T20:22:59.928Z,1.60
2022-08-28T20:25:50.630Z,1.80
2022-08-28T20:28:40.592Z,1.90
2022-08-28T20:31:15.747Z,2.30
2022-08-28T20:37:13.433Z,3.10
2022-08-28T20:39:48.339Z,3.10
2022-08-28T20:42:38.116Z,3.00
2022-08-28T20:45:12.259Z,2.20
2022-08-28T20:48:04.122Z,1.90
2022-08-28T20:53:45.812Z,1.50
2022-08-28T20:56:53.020Z,2.30
2022-08-28T20:59:43.679Z,1.90
2022-08-28T21:06:19.746Z,1.20
2022-08-28T21:10:04.968Z,1.20
2022-08-28T21:12:40.069Z,1.30
2022-08-28T21:18:25.065Z,1.10
2022-08-28T21:21:55.432Z,1.00
2022-08-28T21:25:03.282Z,1.20
2022-08-28T21:27:54.862Z,1.20
2022-08-28T21:30:29.638Z,0.70
2022-08-28T21:33:02.956Z,1.10
2022-08-28T21:38:25.659Z,1.10
2022-08-28T21:41:17.331Z,1.30
2022-08-28T21:46:59.224Z,1.40
2022-08-28T21:49:52.452Z,1.20
2022-08-28T21:52:46.298Z,1.00
2022-08-28T21:55:56.451Z,1.10
2022-08-28T22:02:48.182Z,0.80
2022-08-28T22:05:20.823Z,1.30
2022-08-28T22:08:29.255Z,1.30
2022-08-28T22:11:01.983Z,0.80
2022-08-28T22:13:52.618Z,1.20
2022-08-28T22:17:01.375Z,1.20
2022-08-28T22:19:52.041Z,1.30
2022-08-28T22:22:49.260Z,1.20
2022-08-28T22:26:17.903Z,1.10
2022-08-28T22:29:36.923Z,1.60
2022-08-28T22:44:36.419Z,1.20
2022-08-28T22:49:59.022Z,1.40
2022-08-28T22:57:07.008Z,1.60
2022-08-28T23:04:14.269Z,1.30
2022-08-28T23:07:03.761Z,1.40
2022-08-28T23:10:12.132Z,1.40
2022-08-28T23:16:29.914Z,1.60
2022-08-28T23:19:19.881Z,1.50
2022-08-28T23:22:09.758Z,1.60
2022-08-28T23:25:01.152Z,1.90
2022-08-28T23:28:10.510Z,1.50
2022-08-28T23:34:26.191Z,2.00
2022-08-28T23:37:16.001Z,1.90
2022-08-28T23:39:48.752Z,1.80
2022-08-28T23:51:47.262Z,1.80
